Luminous Kobe-2 — JJ3868 — position and weather

sailwx.info

Track history (hours):
 
Tides and Currents Weather Stations Pressure Air Temp Water Temp Dewpoint Dewpoint Depression Visibility Wind Speed Wind Dir Waves Ship Positions

Luminous Kobe-2

Last reported at 2017-Oct-19 22:55 UTC. Time now 2017-Oct-19 23:27 UTC.
Position N 34°41' E 135°11'.

Length 105 m; draft 4.4 m.

Type: Passenger vessel. MMSI: 431000469.

Date/timePositionNaut miles runAvg speedWind from/ knotsBaromVisibWave heightAir tempDewpointWater temp
2017-Oct-19 22:55N 34°41' E 135°11'0 0.0
2017-Oct-19 22:25N 34°41' E 135°11'0 0.0
2017-Oct-19 21:55N 34°41' E 135°11'0 0.0
2017-Oct-19 21:25N 34°41' E 135°11'0 0.0
2017-Oct-19 20:55N 34°41' E 135°11'0 0.0
2017-Oct-19 20:25N 34°41' E 135°11'0 0.0
2017-Oct-19 19:49N 34°41' E 135°11'0 0.0
2017-Oct-19 19:25N 34°41' E 135°11'0 0.0
2017-Oct-19 18:55N 34°41' E 135°11'0 0.0
2017-Oct-19 18:25N 34°41' E 135°11'0 0.0
2017-Oct-19 17:55N 34°41' E 135°11'0 0.0
2017-Oct-19 17:07N 34°41' E 135°11'0 0.0
2017-Oct-19 16:55N 34°41' E 135°11'0 0.0
2017-Oct-19 16:25N 34°41' E 135°11'0 0.0
2017-Oct-19 15:55N 34°41' E 135°11'0 0.0
2017-Oct-19 15:25N 34°41' E 135°11'0 0.0
2017-Oct-19 14:49N 34°41' E 135°11'0 0.0
2017-Oct-19 14:19N 34°41' E 135°11'0 0.0
2017-Oct-19 13:55N 34°41' E 135°11'0 0.0
2017-Oct-19 13:25N 34°41' E 135°11'0 0.0
2017-Oct-19 12:55N 34°41' E 135°11'0 0.0
2017-Oct-19 12:25N 34°41' E 135°11'1 3.4
2017-Oct-19 12:00N 34°39' E 135°11'713.5
2017-Oct-19 11:30N 34°35' E 135°06'611.7
2017-Oct-19 11:00N 34°37' E 134°59'612.9
2017-Oct-19 10:30N 34°37' E 135°07'611.1
2017-Oct-19 10:00N 34°41' E 135°11'0 0.0
2017-Oct-19 09:25N 34°41' E 135°11'1 2.3
2017-Oct-19 09:00N 34°40' E 135°12'4 8.9
2017-Oct-19 08:30N 34°37' E 135°08'510.1
2017-Oct-19 08:00N 34°41' E 135°11'0 0.0
2017-Oct-19 07:29N 34°41' E 135°11'0 0.0
2017-Oct-19 06:59N 34°41' E 135°11'0 0.0
2017-Oct-19 06:29N 34°41' E 135°11'0 0.0
2017-Oct-19 05:59N 34°41' E 135°11'0 0.0
2017-Oct-19 05:29N 34°41' E 135°11'0 0.0
2017-Oct-19 05:01N 34°41' E 135°11'3 5.7
2017-Oct-19 04:31N 34°38' E 135°11'3 6.3
2017-Oct-19 04:01N 34°37' E 135°07'4 8.6
2017-Oct-19 03:30N 34°37' E 135°12'3 6.8
2017-Oct-19 03:00N 34°41' E 135°11'0 0.0
2017-Oct-19 02:30N 34°41' E 135°11'0 0.0
2017-Oct-19 02:00N 34°41' E 135°11'0 0.0
2017-Oct-19 01:30N 34°41' E 135°11'0 0.0
2017-Oct-19 01:00N 34°41' E 135°11'0 0.0
2017-Oct-19 00:30N 34°41' E 135°11'0 0.0
2017-Oct-19 00:00N 34°41' E 135°11'0 0.0
2017-Oct-18 23:30N 34°41' E 135°11'0 0.0
2017-Oct-18 23:00N 34°41' E 135°11'0 0.0
2017-Oct-18 22:30N 34°41' E 135°11'0 0.0
2017-Oct-18 22:00N 34°41' E 135°11'0 0.0
2017-Oct-18 21:30N 34°41' E 135°11'0 0.0
2017-Oct-18 21:00N 34°41' E 135°11'0 0.0
2017-Oct-18 20:30N 34°41' E 135°11'0 0.0
2017-Oct-18 20:00N 34°41' E 135°11'0 0.0
2017-Oct-18 19:30N 34°41' E 135°11'0 0.0
2017-Oct-18 19:00N 34°41' E 135°11'0 0.0
2017-Oct-18 18:30N 34°41' E 135°11'0 0.0
2017-Oct-18 18:00N 34°41' E 135°11'0 0.0
2017-Oct-18 17:30N 34°41' E 135°11'0 0.0
2017-Oct-18 17:00N 34°41' E 135°11'0 0.0
2017-Oct-18 16:30N 34°41' E 135°11'0 0.0
2017-Oct-18 16:00N 34°41' E 135°11'0 0.0
2017-Oct-18 15:30N 34°41' E 135°11'0 0.0
2017-Oct-18 15:00N 34°41' E 135°11'0 0.0
2017-Oct-18 14:00N 34°41' E 135°11'0 0.0
2017-Oct-18 13:30N 34°41' E 135°11'0 0.0
2017-Oct-18 13:00N 34°41' E 135°11'0 0.0
2017-Oct-18 12:30N 34°41' E 135°11'2 3.0
2017-Oct-18 12:00N 34°39' E 135°11'713.6
2017-Oct-18 11:31N 34°35' E 135°05'611.6
2017-Oct-18 11:00N 34°37' E 134°58'713.8
2017-Oct-18 10:30N 34°37' E 135°07'510.6
2017-Oct-18 10:00N 34°41' E 135°11'0 0.0
2017-Oct-18 09:27N 34°41' E 135°11'1 2.4
2017-Oct-18 09:00N 34°40' E 135°12'4 8.5
2017-Oct-18 08:30N 34°37' E 135°07'5 9.6
2017-Oct-18 08:00N 34°41' E 135°11'0 0.0
2017-Oct-18 07:30N 34°41' E 135°11'0 0.0
2017-Oct-18 07:00N 34°41' E 135°11'0 0.0
2017-Oct-18 06:30N 34°41' E 135°11'0 0.0
2017-Oct-18 06:00N 34°41' E 135°11'0 0.0
2017-Oct-18 05:24N 34°41' E 135°11'0 0.0
2017-Oct-18 05:00N 34°41' E 135°11'3 5.7
2017-Oct-18 04:30N 34°38' E 135°11'3 6.7
2017-Oct-18 04:00N 34°36' E 135°07'4 8.6
2017-Oct-18 03:30N 34°37' E 135°12'3 6.8
2017-Oct-18 03:00N 34°41' E 135°11'0 0.0
2017-Oct-18 02:25N 34°41' E 135°11'0 0.0
2017-Oct-18 01:55N 34°41' E 135°11'0 0.0
2017-Oct-18 01:25N 34°41' E 135°11'0 0.0
2017-Oct-18 00:55N 34°41' E 135°11'0 0.0
2017-Oct-18 00:25N 34°41' E 135°11'0 0.0
2017-Oct-17 23:55N 34°41' E 135°11'0 0.0
2017-Oct-17 23:25N 34°41' E 135°11'0 0.0
2017-Oct-17 22:55N 34°41' E 135°11'0 0.0
2017-Oct-17 22:25N 34°41' E 135°11'0 0.0
2017-Oct-17 21:55N 34°41' E 135°11'0 0.0
2017-Oct-17 21:19N 34°41' E 135°11'0 0.0
2017-Oct-17 20:55N 34°41' E 135°11'0 0.0
2017-Oct-17 20:25N 34°41' E 135°11'0 0.0
2017-Oct-17 19:55N 34°41' E 135°11'0 0.0
2017-Oct-17 19:25N 34°41' E 135°11'0 0.0
2017-Oct-17 18:49N 34°41' E 135°11'0 0.0
2017-Oct-17 18:25N 34°41' E 135°11'0 0.0
2017-Oct-17 17:55N 34°41' E 135°11'0 0.0
2017-Oct-17 17:25N 34°41' E 135°11'0 0.0
2017-Oct-17 16:55N 34°41' E 135°11'0 0.0
2017-Oct-17 16:25N 34°41' E 135°11'0 0.0
2017-Oct-17 15:55N 34°41' E 135°11'0 0.0
2017-Oct-17 15:19N 34°41' E 135°11'0 0.0
2017-Oct-17 14:55N 34°41' E 135°11'0 0.0
2017-Oct-17 14:25N 34°41' E 135°11'0 0.0
2017-Oct-17 13:55N 34°41' E 135°11'0 0.0
2017-Oct-17 13:25N 34°41' E 135°11'0 0.0
2017-Oct-17 12:55N 34°41' E 135°11'0 0.0
2017-Oct-17 12:25N 34°41' E 135°11'1 3.7
2017-Oct-17 12:00N 34°39' E 135°11'713.2
2017-Oct-17 11:30N 34°35' E 135°05'611.9
2017-Oct-17 11:00N 34°38' E 134°59'713.9
2017-Oct-17 10:30N 34°37' E 135°07'510.1
2017-Oct-17 10:01N 34°41' E 135°11'0 0.0
2017-Oct-17 09:29N 34°41' E 135°11'1 2.2
2017-Oct-17 09:00N 34°40' E 135°12'4 8.8
2017-Oct-17 08:30N 34°38' E 135°07'5 9.7
2017-Oct-17 08:01N 34°41' E 135°11'0 0.0
2017-Oct-17 07:16N 34°41' E 135°11'0 0.0
2017-Oct-17 06:58N 34°41' E 135°11'0 0.0
2017-Oct-17 06:28N 34°41' E 135°11'0 0.0
2017-Oct-17 05:58N 34°41' E 135°11'0 0.0
2017-Oct-17 05:22N 34°41' E 135°11'0 0.0
2017-Oct-17 05:00N 34°41' E 135°11'3 5.4
2017-Oct-17 04:30N 34°38' E 135°11'3 5.1
2017-Oct-17 04:00N 34°37' E 135°08'3 6.9
2017-Oct-17 03:30N 34°38' E 135°12'3 6.7
2017-Oct-17 03:00N 34°41' E 135°11'0 0.0
2017-Oct-17 02:30N 34°41' E 135°11'0 0.0
2017-Oct-17 02:00N 34°41' E 135°11'0 0.0
2017-Oct-17 01:30N 34°41' E 135°11'0 0.0
2017-Oct-17 01:00N 34°41' E 135°11'0 0.0
2017-Oct-17 00:30N 34°41' E 135°11'0 0.0
2017-Oct-17 00:00N 34°41' E 135°11'0 0.0
2017-Oct-16 23:30N 34°41' E 135°11'0 0.0
2017-Oct-16 22:54N 34°41' E 135°11'0 0.0
2017-Oct-16 22:30N 34°41' E 135°11'0 0.0
2017-Oct-16 22:00N 34°41' E 135°11'0 0.0
2017-Oct-16 21:24N 34°41' E 135°11'0 0.0
2017-Oct-16 20:54N 34°41' E 135°11'0 0.0
2017-Oct-16 20:30N 34°41' E 135°11'0 0.0
2017-Oct-16 20:00N 34°41' E 135°11'0 0.0
2017-Oct-16 19:30N 34°41' E 135°11'0 0.0
2017-Oct-16 19:00N 34°41' E 135°11'0 0.0
2017-Oct-16 18:24N 34°41' E 135°11'0 0.0
2017-Oct-16 18:00N 34°41' E 135°11'0 0.0
2017-Oct-16 17:00N 34°41' E 135°11'0 0.0
2017-Oct-16 16:18N 34°41' E 135°11'0 0.0
2017-Oct-16 15:54N 34°41' E 135°11'0 0.0
2017-Oct-16 15:30N 34°41' E 135°11'0 0.0
2017-Oct-16 15:00N 34°41' E 135°11'0 0.0
2017-Oct-16 13:48N 34°41' E 135°11'0 0.0
2017-Oct-16 13:30N 34°41' E 135°11'0 0.0
2017-Oct-16 13:00N 34°41' E 135°11'0 0.0
2017-Oct-16 12:30N 34°41' E 135°11'1 2.8
2017-Oct-16 12:00N 34°39' E 135°11'611.7
2017-Oct-16 11:30N 34°36' E 135°06'612.5
2017-Oct-16 10:59N 34°37' E 134°58'714.2
2017-Oct-16 10:30N 34°37' E 135°07'510.7
2017-Oct-16 10:00N 34°41' E 135°11'0 0.0
2017-Oct-16 09:27N 34°41' E 135°11'1 2.8
2017-Oct-16 09:00N 34°40' E 135°11'4 8.4
2017-Oct-16 08:30N 34°37' E 135°07'5 9.8
2017-Oct-16 08:00N 34°41' E 135°11'0 0.0
2017-Oct-16 07:30N 34°41' E 135°11'0 0.0
2017-Oct-16 07:00N 34°41' E 135°11'0 0.0
2017-Oct-16 06:24N 34°41' E 135°11'0 0.0
2017-Oct-16 06:00N 34°41' E 135°11'0 0.0
2017-Oct-16 05:30N 34°41' E 135°11'0 0.0
2017-Oct-16 05:00N 34°41' E 135°11'3 5.6
2017-Oct-16 04:30N 34°38' E 135°10'4 7.1
2017-Oct-16 04:00N 34°37' E 135°06'510.1
2017-Oct-16 03:30N 34°38' E 135°12'3 6.8
2017-Oct-16 03:00N 34°41' E 135°11'0 0.0
2017-Oct-16 02:24N 34°41' E 135°11'0 0.0
2017-Oct-16 02:00N 34°41' E 135°11'0 0.0
2017-Oct-16 01:30N 34°41' E 135°11'0 0.0
2017-Oct-16 01:00N 34°41' E 135°11'0 0.0
2017-Oct-16 00:30N 34°41' E 135°11'0 0.0
2017-Oct-16 00:00N 34°41' E 135°11'0 0.0
2017-Oct-15 23:30N 34°41' E 135°11'0 0.0
2017-Oct-15 23:00N 34°41' E 135°11'0 0.0
2017-Oct-15 22:24N 34°41' E 135°11'0 0.0
2017-Oct-15 22:00N 34°41' E 135°11'0 0.0
2017-Oct-15 21:30N 34°41' E 135°11'0 0.0
2017-Oct-15 21:00N 34°41' E 135°11'0 0.0
2017-Oct-15 20:12N 34°41' E 135°11'0 0.0
2017-Oct-15 20:00N 34°41' E 135°11'0 0.0
2017-Oct-15 19:18N 34°41' E 135°11'0 0.0
2017-Oct-15 19:00N 34°41' E 135°11'0 0.0
2017-Oct-15 18:30N 34°41' E 135°11'0 0.0
2017-Oct-15 18:00N 34°41' E 135°11'0 0.0
2017-Oct-15 17:30N 34°41' E 135°11'0 0.0
2017-Oct-15 16:54N 34°41' E 135°11'0 0.0
2017-Oct-15 16:30N 34°41' E 135°11'0 0.0
2017-Oct-15 16:00N 34°41' E 135°11'0 0.0
2017-Oct-15 15:30N 34°41' E 135°11'0 0.0
2017-Oct-15 15:00N 34°41' E 135°11'0 0.0
2017-Oct-15 14:00N 34°41' E 135°11'0 0.0
2017-Oct-15 13:30N 34°41' E 135°11'0 0.0
2017-Oct-15 13:00N 34°41' E 135°11'0 0.0
2017-Oct-15 12:24N 34°41' E 135°11'1 2.8
2017-Oct-15 12:00N 34°40' E 135°11'611.5
2017-Oct-15 11:30N 34°36' E 135°06'612.8
2017-Oct-15 11:00N 34°37' E 134°59'713.5
2017-Oct-15 10:30N 34°37' E 135°07'510.3
2017-Oct-15 10:00N 34°41' E 135°11'0 0.0
2017-Oct-15 09:30N 34°41' E 135°11'0 0.0
2017-Oct-15 09:00N 34°41' E 135°11'3 5.1
2017-Oct-15 08:30N 34°38' E 135°11'3 5.1
2017-Oct-15 08:00N 34°37' E 135°08'4 7.1
2017-Oct-15 07:30N 34°37' E 135°12'3 6.9
2017-Oct-15 07:00N 34°41' E 135°11'0 0.0
2017-Oct-15 06:26N 34°41' E 135°11'0 0.0
2017-Oct-15 05:50N 34°41' E 135°11'0 0.0
2017-Oct-15 05:26N 34°41' E 135°11'0 0.0
2017-Oct-15 05:00N 34°41' E 135°11'3 5.7
2017-Oct-15 04:30N 34°38' E 135°10'3 6.3
2017-Oct-15 04:00N 34°37' E 135°07'5 9.3
2017-Oct-15 03:30N 34°38' E 135°12'3 6.5
2017-Oct-15 03:00N 34°41' E 135°11'0 0.0
2017-Oct-15 02:29N 34°41' E 135°11'0 0.0
2017-Oct-15 01:53N 34°41' E 135°11'0 0.0
2017-Oct-15 01:29N 34°41' E 135°11'0 0.0
2017-Oct-15 00:59N 34°41' E 135°11'0 0.0
2017-Oct-15 00:29N 34°41' E 135°11'0 0.0
2017-Oct-14 23:59N 34°41' E 135°11'0 0.0
2017-Oct-14 23:29N 34°41' E 135°11'0 0.0
2017-Oct-14 22:59N 34°41' E 135°11'0 0.0
2017-Oct-14 22:29N 34°41' E 135°11'0 0.0
2017-Oct-14 21:59N 34°41' E 135°11'0 0.0
2017-Oct-14 21:29N 34°41' E 135°11'0 0.0
2017-Oct-14 20:59N 34°41' E 135°11'0 0.0
2017-Oct-14 20:29N 34°41' E 135°11'0 0.0
2017-Oct-14 19:59N 34°41' E 135°11'0 0.0
2017-Oct-14 19:29N 34°41' E 135°11'0 0.0
2017-Oct-14 18:59N 34°41' E 135°11'0 0.0
2017-Oct-14 18:23N 34°41' E 135°11'0 0.0
2017-Oct-14 17:59N 34°41' E 135°11'0 0.0
2017-Oct-14 17:17N 34°41' E 135°11'0 0.0
2017-Oct-14 16:59N 34°41' E 135°11'0 0.0
2017-Oct-14 16:29N 34°41' E 135°11'0 0.0
2017-Oct-14 15:59N 34°41' E 135°11'0 0.0
2017-Oct-14 15:29N 34°41' E 135°11'0 0.0
2017-Oct-14 14:59N 34°41' E 135°11'0 0.0
2017-Oct-14 14:29N 34°41' E 135°11'0 0.0
2017-Oct-14 13:59N 34°41' E 135°11'0 0.0
2017-Oct-14 13:29N 34°41' E 135°11'0 0.0
2017-Oct-14 12:59N 34°41' E 135°11'0 0.0
2017-Oct-14 12:29N 34°41' E 135°11'1 2.3
2017-Oct-14 12:00N 34°40' E 135°12'713.4
2017-Oct-14 11:30N 34°35' E 135°06'612.5
2017-Oct-14 11:00N 34°38' E 134°59'713.7
2017-Oct-14 10:30N 34°37' E 135°07'510.6
2017-Oct-14 10:00N 34°41' E 135°11'0 0.0
2017-Oct-14 09:30N 34°41' E 135°11'0 0.0
2017-Oct-14 09:00N 34°41' E 135°11'3 5.0
2017-Oct-14 08:30N 34°38' E 135°11'4 8.8
2017-Oct-14 08:00N 34°37' E 135°06'611.3
2017-Oct-14 07:30N 34°37' E 135°12'4 7.6
2017-Oct-14 07:01N 34°41' E 135°11'0 0.0
2017-Oct-14 06:30N 34°41' E 135°11'0 0.0
2017-Oct-14 06:00N 34°41' E 135°11'0 0.0
2017-Oct-14 05:30N 34°41' E 135°11'0 0.0
2017-Oct-14 05:00N 34°41' E 135°11'3 5.7
2017-Oct-14 04:31N 34°38' E 135°10'3 6.3
2017-Oct-14 04:00N 34°37' E 135°07'5 9.3
2017-Oct-14 03:30N 34°38' E 135°12'3 6.9
2017-Oct-14 03:00N 34°41' E 135°11'0 0.0
2017-Oct-14 02:28N 34°41' E 135°11'0 0.0
2017-Oct-14 01:58N 34°41' E 135°11'0 0.0
2017-Oct-14 01:28N 34°41' E 135°11'0 0.0
2017-Oct-14 00:58N 34°41' E 135°11'0 0.0
2017-Oct-14 00:16N 34°41' E 135°11'0 0.0
2017-Oct-13 23:52N 34°41' E 135°11'0 0.0
2017-Oct-13 23:16N 34°41' E 135°11'0 0.0
2017-Oct-13 22:58N 34°41' E 135°11'0 0.0
2017-Oct-13 22:28N 34°41' E 135°11'0 0.0
2017-Oct-13 21:58N 34°41' E 135°11'0 0.0
2017-Oct-13 21:28N 34°41' E 135°11'0 0.0
2017-Oct-13 20:58N 34°41' E 135°11'0 0.0
2017-Oct-13 20:28N 34°41' E 135°11'0 0.0
2017-Oct-13 19:58N 34°41' E 135°11'0 0.0
2017-Oct-13 19:28N 34°41' E 135°11'0 0.0
2017-Oct-13 18:58N 34°41' E 135°11'0 0.0
2017-Oct-13 18:28N 34°41' E 135°11'0 0.0
2017-Oct-13 17:52N 34°41' E 135°11'0 0.0
2017-Oct-13 17:22N 34°41' E 135°11'0 0.0
2017-Oct-13 16:58N 34°41' E 135°11'0 0.0
2017-Oct-13 16:28N 34°41' E 135°11'0 0.0
2017-Oct-13 15:58N 34°41' E 135°11'0 0.0
2017-Oct-13 15:28N 34°41' E 135°11'0 0.0
2017-Oct-13 14:58N 34°41' E 135°11'0 0.0
2017-Oct-13 14:28N 34°41' E 135°11'0 0.0
2017-Oct-13 13:58N 34°41' E 135°11'0 0.0
2017-Oct-13 13:28N 34°41' E 135°11'0 0.0
2017-Oct-13 12:58N 34°41' E 135°11'0 0.0
2017-Oct-13 12:28N 34°41' E 135°11'1 3.0
2017-Oct-13 12:00N 34°39' E 135°11'712.9
2017-Oct-13 11:30N 34°35' E 135°05'511.1
2017-Oct-13 11:00N 34°37' E 134°59'612.4
2017-Oct-13 10:30N 34°37' E 135°07'510.4
2017-Oct-13 10:00N 34°41' E 135°11'0 0.0
2017-Oct-13 09:27N 34°41' E 135°11'1 2.5
2017-Oct-13 09:00N 34°40' E 135°12'4 8.5
2017-Oct-13 08:30N 34°37' E 135°07'5 9.7
2017-Oct-13 08:00N 34°41' E 135°11'0 0.0
2017-Oct-13 07:30N 34°41' E 135°11'0 0.0
2017-Oct-13 07:00N 34°41' E 135°11'0 0.0
2017-Oct-13 06:30N 34°41' E 135°11'0 0.0
2017-Oct-13 06:00N 34°41' E 135°11'0 0.0
2017-Oct-13 05:30N 34°41' E 135°11'0 0.0
2017-Oct-13 05:00N 34°41' E 135°11'3 5.5
2017-Oct-13 04:30N 34°38' E 135°10'2 4.4
2017-Oct-13 04:00N 34°37' E 135°08'3 6.9
2017-Oct-13 03:30N 34°38' E 135°12'3 6.6
2017-Oct-13 03:00N 34°41' E 135°11'0 0.0
2017-Oct-13 02:30N 34°41' E 135°11'0 0.0
2017-Oct-13 02:00N 34°41' E 135°11'0 0.0
2017-Oct-13 01:24N 34°41' E 135°11'0 0.0
2017-Oct-13 01:00N 34°41' E 135°11'0 0.0
2017-Oct-13 00:30N 34°41' E 135°11'0 0.0
2017-Oct-13 00:00N 34°41' E 135°11'0 0.0
2017-Oct-12 23:30N 34°41' E 135°11'0 0.0
2017-Oct-12 23:00N 34°41' E 135°11'0 0.0
2017-Oct-12 22:24N 34°41' E 135°11'0 0.0
2017-Oct-12 21:36N 34°41' E 135°11'0 0.1
2017-Oct-12 21:30N 34°41' E 135°11'0 0.0
2017-Oct-12 21:00N 34°41' E 135°11'0 0.0
2017-Oct-12 20:30N 34°41' E 135°11'0 0.0
2017-Oct-12 20:00N 34°41' E 135°11'0 0.0
2017-Oct-12 19:30N 34°41' E 135°11'0 0.0
2017-Oct-12 19:00N 34°41' E 135°11'0 0.0
2017-Oct-12 18:30N 34°41' E 135°11'0 0.0
2017-Oct-12 18:00N 34°41' E 135°11'0 0.0
2017-Oct-12 17:30N 34°41' E 135°11'0 0.0
2017-Oct-12 17:00N 34°41' E 135°11'0 0.0
2017-Oct-12 16:30N 34°41' E 135°11'0 0.0
2017-Oct-12 16:00N 34°41' E 135°11'0 0.0
2017-Oct-12 15:30N 34°41' E 135°11'0 0.0
2017-Oct-12 15:00N 34°41' E 135°11'0 0.0
2017-Oct-12 14:30N 34°41' E 135°11'0 0.0
2017-Oct-12 14:00N 34°41' E 135°11'0 0.0
2017-Oct-12 13:30N 34°41' E 135°11'0 0.0
2017-Oct-12 13:00N 34°41' E 135°11'0 0.0
2017-Oct-12 12:30N 34°41' E 135°11'1 2.2
2017-Oct-12 12:01N 34°40' E 135°12'611.8
2017-Oct-12 11:30N 34°35' E 135°06'612.3
2017-Oct-12 11:00N 34°37' E 134°59'612.5
2017-Oct-12 10:30N 34°37' E 135°07'510.3
2017-Oct-12 10:00N 34°41' E 135°11'0 0.0
2017-Oct-12 09:24N 34°41' E 135°11'1 2.6
2017-Oct-12 09:00N 34°40' E 135°12'4 8.7
2017-Oct-12 08:30N 34°37' E 135°07'5 9.6
2017-Oct-12 08:00N 34°41' E 135°11'0 0.0
2017-Oct-12 07:28N 34°41' E 135°11'0 0.0
2017-Oct-12 06:58N 34°41' E 135°11'0 0.0
2017-Oct-12 06:28N 34°41' E 135°11'0 0.0
2017-Oct-12 05:58N 34°41' E 135°11'0 0.0
2017-Oct-12 05:28N 34°41' E 135°11'0 0.0
2017-Oct-12 05:00N 34°41' E 135°11'3 5.4
2017-Oct-12 04:31N 34°38' E 135°10'3 6.4
2017-Oct-12 03:59N 34°37' E 135°07'510.1
2017-Oct-12 03:31N 34°37' E 135°12'4 7.1
2017-Oct-12 03:01N 34°41' E 135°11'0 0.0
2017-Oct-12 02:30N 34°41' E 135°11'0 0.0
2017-Oct-12 02:00N 34°41' E 135°11'0 0.0
2017-Oct-12 01:30N 34°41' E 135°11'0 0.0
2017-Oct-12 01:00N 34°41' E 135°11'0 0.0
2017-Oct-12 00:30N 34°41' E 135°11'0 0.0
2017-Oct-12 00:00N 34°41' E 135°11'0 0.0
2017-Oct-11 23:24N 34°41' E 135°11'0 0.0
2017-Oct-11 23:00N 34°41' E 135°11'0 0.0
2017-Oct-11 22:30N 34°41' E 135°11'0 0.0
2017-Oct-11 22:00N 34°41' E 135°11'0 0.0
2017-Oct-11 21:30N 34°41' E 135°11'0 0.0
2017-Oct-11 20:54N 34°41' E 135°11'0 0.0
2017-Oct-11 20:30N 34°41' E 135°11'0 0.0
2017-Oct-11 20:00N 34°41' E 135°11'0 0.0
2017-Oct-11 19:30N 34°41' E 135°11'0 0.0
2017-Oct-11 19:00N 34°41' E 135°11'0 0.0
2017-Oct-11 18:12N 34°41' E 135°11'0 0.0
2017-Oct-11 18:00N 34°41' E 135°11'0 0.0
2017-Oct-11 17:30N 34°41' E 135°11'0 0.0
2017-Oct-11 17:00N 34°41' E 135°11'0 0.0
2017-Oct-10 23:55N 34°41' E 135°11'0 0.0
2017-Oct-10 23:25N 34°41' E 135°11'0 0.0
2017-Oct-10 22:55N 34°41' E 135°11'0 0.0
2017-Oct-10 22:13N 34°41' E 135°11'0 0.0
2017-Oct-10 21:55N 34°41' E 135°11'0 0.0
2017-Oct-10 21:25N 34°41' E 135°11'0 0.0
2017-Oct-10 20:55N 34°41' E 135°11'0 0.0
2017-Oct-10 20:19N 34°41' E 135°11'0 0.0
2017-Oct-10 19:55N 34°41' E 135°11'0 0.0
2017-Oct-10 19:25N 34°41' E 135°11'0 0.0
2017-Oct-10 18:55N 34°41' E 135°11'0 0.0
2017-Oct-10 18:19N 34°41' E 135°11'0 0.0
2017-Oct-10 17:55N 34°41' E 135°11'0 0.0
2017-Oct-10 17:25N 34°41' E 135°11'0 0.0
2017-Oct-10 16:49N 34°41' E 135°11'0 0.0
2017-Oct-10 16:25N 34°41' E 135°11'0 0.0
2017-Oct-10 15:55N 34°41' E 135°11'0 0.0
2017-Oct-10 15:19N 34°41' E 135°11'0 0.0
2017-Oct-10 14:55N 34°41' E 135°11'0 0.0
2017-Oct-10 13:55N 34°41' E 135°11'0 0.0
2017-Oct-10 13:25N 34°41' E 135°11'0 0.0
2017-Oct-10 12:55N 34°41' E 135°11'0 0.0
2017-Oct-10 12:28N 34°41' E 135°11'1 2.6
2017-Oct-10 12:00N 34°40' E 135°11'611.5
2017-Oct-10 11:30N 34°36' E 135°06'610.5
2017-Oct-10 10:58N 34°38' E 134°60'613.1
2017-Oct-10 10:30N 34°37' E 135°07'510.3
2017-Oct-10 10:00N 34°41' E 135°11'0 0.0
2017-Oct-10 09:27N 34°41' E 135°11'1 2.2
2017-Oct-10 09:00N 34°40' E 135°12'4 8.4
2017-Oct-10 08:30N 34°37' E 135°08'5 9.4
2017-Oct-10 08:00N 34°41' E 135°11'0 0.0
2017-Oct-10 07:25N 34°41' E 135°11'0 0.0
2017-Oct-10 06:55N 34°41' E 135°11'0 0.0
2017-Oct-10 06:25N 34°41' E 135°11'0 0.0
2017-Oct-10 05:55N 34°41' E 135°11'0 0.0
2017-Oct-10 05:25N 34°41' E 135°11'0 0.0
2017-Oct-10 05:01N 34°41' E 135°11'3 5.5
2017-Oct-10 04:30N 34°38' E 135°10'3 7.0
2017-Oct-10 04:01N 34°37' E 135°06'5 9.2
2017-Oct-10 03:30N 34°38' E 135°12'3 6.8
2017-Oct-10 03:00N 34°41' E 135°11'0 0.0
2017-Oct-10 02:19N 34°41' E 135°11'0 0.0
2017-Oct-10 01:55N 34°41' E 135°11'0 0.0
2017-Oct-10 01:25N 34°41' E 135°11'0 0.0
2017-Oct-10 00:55N 34°41' E 135°11'0 0.0
2017-Oct-10 00:25N 34°41' E 135°11'0 0.0
2017-Oct-09 23:55N 34°41' E 135°11'0 0.0
2017-Oct-09 23:19N 34°41' E 135°11'  
Track history (hours):
 
Tides and Currents Weather Stations Pressure Air Temp Water Temp Dewpoint Dewpoint Depression Visibility Wind Speed Wind Dir Waves Ship Positions

Luminous Kobe-2

Last reported at 2017-Oct-19 22:55 UTC. Time now 2017-Oct-19 23:27 UTC.
Position N 34°41' E 135°11'.

Length 105 m; draft 4.4 m.

Type: Passenger vessel. MMSI: 431000469.

Date/timePositionNaut miles runAvg speedWind from/ knotsBaromVisibWave heightAir tempDewpointWater temp
2017-Oct-19 22:55N 34°41' E 135°11'0 0.0
2017-Oct-19 22:25N 34°41' E 135°11'0 0.0
2017-Oct-19 21:55N 34°41' E 135°11'0 0.0
2017-Oct-19 21:25N 34°41' E 135°11'0 0.0
2017-Oct-19 20:55N 34°41' E 135°11'0 0.0
2017-Oct-19 20:25N 34°41' E 135°11'0 0.0
2017-Oct-19 19:49N 34°41' E 135°11'0 0.0
2017-Oct-19 19:25N 34°41' E 135°11'0 0.0
2017-Oct-19 18:55N 34°41' E 135°11'0 0.0
2017-Oct-19 18:25N 34°41' E 135°11'0 0.0
2017-Oct-19 17:55N 34°41' E 135°11'0 0.0
2017-Oct-19 17:07N 34°41' E 135°11'0 0.0
2017-Oct-19 16:55N 34°41' E 135°11'0 0.0
2017-Oct-19 16:25N 34°41' E 135°11'0 0.0
2017-Oct-19 15:55N 34°41' E 135°11'0 0.0
2017-Oct-19 15:25N 34°41' E 135°11'0 0.0
2017-Oct-19 14:49N 34°41' E 135°11'0 0.0
2017-Oct-19 14:19N 34°41' E 135°11'0 0.0
2017-Oct-19 13:55N 34°41' E 135°11'0 0.0
2017-Oct-19 13:25N 34°41' E 135°11'0 0.0
2017-Oct-19 12:55N 34°41' E 135°11'0 0.0
2017-Oct-19 12:25N 34°41' E 135°11'1 3.4
2017-Oct-19 12:00N 34°39' E 135°11'713.5
2017-Oct-19 11:30N 34°35' E 135°06'611.7
2017-Oct-19 11:00N 34°37' E 134°59'612.9
2017-Oct-19 10:30N 34°37' E 135°07'611.1
2017-Oct-19 10:00N 34°41' E 135°11'0 0.0
2017-Oct-19 09:25N 34°41' E 135°11'1 2.3
2017-Oct-19 09:00N 34°40' E 135°12'4 8.9
2017-Oct-19 08:30N 34°37' E 135°08'510.1
2017-Oct-19 08:00N 34°41' E 135°11'0 0.0
2017-Oct-19 07:29N 34°41' E 135°11'0 0.0
2017-Oct-19 06:59N 34°41' E 135°11'0 0.0
2017-Oct-19 06:29N 34°41' E 135°11'0 0.0
2017-Oct-19 05:59N 34°41' E 135°11'0 0.0
2017-Oct-19 05:29N 34°41' E 135°11'0 0.0
2017-Oct-19 05:01N 34°41' E 135°11'3 5.7
2017-Oct-19 04:31N 34°38' E 135°11'3 6.3
2017-Oct-19 04:01N 34°37' E 135°07'4 8.6
2017-Oct-19 03:30N 34°37' E 135°12'3 6.8
2017-Oct-19 03:00N 34°41' E 135°11'0 0.0
2017-Oct-19 02:30N 34°41' E 135°11'0 0.0
2017-Oct-19 02:00N 34°41' E 135°11'0 0.0
2017-Oct-19 01:30N 34°41' E 135°11'0 0.0
2017-Oct-19 01:00N 34°41' E 135°11'0 0.0
2017-Oct-19 00:30N 34°41' E 135°11'0 0.0
2017-Oct-19 00:00N 34°41' E 135°11'0 0.0
2017-Oct-18 23:30N 34°41' E 135°11'0 0.0
2017-Oct-18 23:00N 34°41' E 135°11'0 0.0
2017-Oct-18 22:30N 34°41' E 135°11'0 0.0
2017-Oct-18 22:00N 34°41' E 135°11'0 0.0
2017-Oct-18 21:30N 34°41' E 135°11'0 0.0
2017-Oct-18 21:00N 34°41' E 135°11'0 0.0
2017-Oct-18 20:30N 34°41' E 135°11'0 0.0
2017-Oct-18 20:00N 34°41' E 135°11'0 0.0
2017-Oct-18 19:30N 34°41' E 135°11'0 0.0
2017-Oct-18 19:00N 34°41' E 135°11'0 0.0
2017-Oct-18 18:30N 34°41' E 135°11'0 0.0
2017-Oct-18 18:00N 34°41' E 135°11'0 0.0
2017-Oct-18 17:30N 34°41' E 135°11'0 0.0
2017-Oct-18 17:00N 34°41' E 135°11'0 0.0
2017-Oct-18 16:30N 34°41' E 135°11'0 0.0
2017-Oct-18 16:00N 34°41' E 135°11'0 0.0
2017-Oct-18 15:30N 34°41' E 135°11'0 0.0
2017-Oct-18 15:00N 34°41' E 135°11'0 0.0
2017-Oct-18 14:00N 34°41' E 135°11'0 0.0
2017-Oct-18 13:30N 34°41' E 135°11'0 0.0
2017-Oct-18 13:00N 34°41' E 135°11'0 0.0
2017-Oct-18 12:30N 34°41' E 135°11'2 3.0
2017-Oct-18 12:00N 34°39' E 135°11'713.6
2017-Oct-18 11:31N 34°35' E 135°05'611.6
2017-Oct-18 11:00N 34°37' E 134°58'713.8
2017-Oct-18 10:30N 34°37' E 135°07'510.6
2017-Oct-18 10:00N 34°41' E 135°11'0 0.0
2017-Oct-18 09:27N 34°41' E 135°11'1 2.4
2017-Oct-18 09:00N 34°40' E 135°12'4 8.5
2017-Oct-18 08:30N 34°37' E 135°07'5 9.6
2017-Oct-18 08:00N 34°41' E 135°11'0 0.0
2017-Oct-18 07:30N 34°41' E 135°11'0 0.0
2017-Oct-18 07:00N 34°41' E 135°11'0 0.0
2017-Oct-18 06:30N 34°41' E 135°11'0 0.0
2017-Oct-18 06:00N 34°41' E 135°11'0 0.0
2017-Oct-18 05:24N 34°41' E 135°11'0 0.0
2017-Oct-18 05:00N 34°41' E 135°11'3 5.7
2017-Oct-18 04:30N 34°38' E 135°11'3 6.7
2017-Oct-18 04:00N 34°36' E 135°07'4 8.6
2017-Oct-18 03:30N 34°37' E 135°12'3 6.8
2017-Oct-18 03:00N 34°41' E 135°11'0 0.0
2017-Oct-18 02:25N 34°41' E 135°11'0 0.0
2017-Oct-18 01:55N 34°41' E 135°11'0 0.0
2017-Oct-18 01:25N 34°41' E 135°11'0 0.0
2017-Oct-18 00:55N 34°41' E 135°11'0 0.0
2017-Oct-18 00:25N 34°41' E 135°11'0 0.0
2017-Oct-17 23:55N 34°41' E 135°11'0 0.0
2017-Oct-17 23:25N 34°41' E 135°11'0 0.0
2017-Oct-17 22:55N 34°41' E 135°11'0 0.0
2017-Oct-17 22:25N 34°41' E 135°11'0 0.0
2017-Oct-17 21:55N 34°41' E 135°11'0 0.0
2017-Oct-17 21:19N 34°41' E 135°11'0 0.0
2017-Oct-17 20:55N 34°41' E 135°11'0 0.0
2017-Oct-17 20:25N 34°41' E 135°11'0 0.0
2017-Oct-17 19:55N 34°41' E 135°11'0 0.0
2017-Oct-17 19:25N 34°41' E 135°11'0 0.0
2017-Oct-17 18:49N 34°41' E 135°11'0 0.0
2017-Oct-17 18:25N 34°41' E 135°11'0 0.0
2017-Oct-17 17:55N 34°41' E 135°11'0 0.0
2017-Oct-17 17:25N 34°41' E 135°11'0 0.0
2017-Oct-17 16:55N 34°41' E 135°11'0 0.0
2017-Oct-17 16:25N 34°41' E 135°11'0 0.0
2017-Oct-17 15:55N 34°41' E 135°11'0 0.0
2017-Oct-17 15:19N 34°41' E 135°11'0 0.0
2017-Oct-17 14:55N 34°41' E 135°11'0 0.0
2017-Oct-17 14:25N 34°41' E 135°11'0 0.0
2017-Oct-17 13:55N 34°41' E 135°11'0 0.0
2017-Oct-17 13:25N 34°41' E 135°11'0 0.0
2017-Oct-17 12:55N 34°41' E 135°11'0 0.0
2017-Oct-17 12:25N 34°41' E 135°11'1 3.7
2017-Oct-17 12:00N 34°39' E 135°11'713.2
2017-Oct-17 11:30N 34°35' E 135°05'611.9
2017-Oct-17 11:00N 34°38' E 134°59'713.9
2017-Oct-17 10:30N 34°37' E 135°07'510.1
2017-Oct-17 10:01N 34°41' E 135°11'0 0.0
2017-Oct-17 09:29N 34°41' E 135°11'1 2.2
2017-Oct-17 09:00N 34°40' E 135°12'4 8.8
2017-Oct-17 08:30N 34°38' E 135°07'5 9.7
2017-Oct-17 08:01N 34°41' E 135°11'0 0.0
2017-Oct-17 07:16N 34°41' E 135°11'0 0.0
2017-Oct-17 06:58N 34°41' E 135°11'0 0.0
2017-Oct-17 06:28N 34°41' E 135°11'0 0.0
2017-Oct-17 05:58N 34°41' E 135°11'0 0.0
2017-Oct-17 05:22N 34°41' E 135°11'0 0.0
2017-Oct-17 05:00N 34°41' E 135°11'3 5.4
2017-Oct-17 04:30N 34°38' E 135°11'3 5.1
2017-Oct-17 04:00N 34°37' E 135°08'3 6.9
2017-Oct-17 03:30N 34°38' E 135°12'3 6.7
2017-Oct-17 03:00N 34°41' E 135°11'0 0.0
2017-Oct-17 02:30N 34°41' E 135°11'0 0.0
2017-Oct-17 02:00N 34°41' E 135°11'0 0.0
2017-Oct-17 01:30N 34°41' E 135°11'0 0.0
2017-Oct-17 01:00N 34°41' E 135°11'0 0.0
2017-Oct-17 00:30N 34°41' E 135°11'0 0.0
2017-Oct-17 00:00N 34°41' E 135°11'0 0.0
2017-Oct-16 23:30N 34°41' E 135°11'0 0.0
2017-Oct-16 22:54N 34°41' E 135°11'0 0.0
2017-Oct-16 22:30N 34°41' E 135°11'0 0.0
2017-Oct-16 22:00N 34°41' E 135°11'0 0.0
2017-Oct-16 21:24N 34°41' E 135°11'0 0.0
2017-Oct-16 20:54N 34°41' E 135°11'0 0.0
2017-Oct-16 20:30N 34°41' E 135°11'0 0.0
2017-Oct-16 20:00N 34°41' E 135°11'0 0.0
2017-Oct-16 19:30N 34°41' E 135°11'0 0.0
2017-Oct-16 19:00N 34°41' E 135°11'0 0.0
2017-Oct-16 18:24N 34°41' E 135°11'0 0.0
2017-Oct-16 18:00N 34°41' E 135°11'0 0.0
2017-Oct-16 17:00N 34°41' E 135°11'0 0.0
2017-Oct-16 16:18N 34°41' E 135°11'0 0.0
2017-Oct-16 15:54N 34°41' E 135°11'0 0.0
2017-Oct-16 15:30N 34°41' E 135°11'0 0.0
2017-Oct-16 15:00N 34°41' E 135°11'0 0.0
2017-Oct-16 13:48N 34°41' E 135°11'0 0.0
2017-Oct-16 13:30N 34°41' E 135°11'0 0.0
2017-Oct-16 13:00N 34°41' E 135°11'0 0.0
2017-Oct-16 12:30N 34°41' E 135°11'1 2.8
2017-Oct-16 12:00N 34°39' E 135°11'611.7
2017-Oct-16 11:30N 34°36' E 135°06'612.5
2017-Oct-16 10:59N 34°37' E 134°58'714.2
2017-Oct-16 10:30N 34°37' E 135°07'510.7
2017-Oct-16 10:00N 34°41' E 135°11'0 0.0
2017-Oct-16 09:27N 34°41' E 135°11'1 2.8
2017-Oct-16 09:00N 34°40' E 135°11'4 8.4
2017-Oct-16 08:30N 34°37' E 135°07'5 9.8
2017-Oct-16 08:00N 34°41' E 135°11'0 0.0
2017-Oct-16 07:30N 34°41' E 135°11'0 0.0
2017-Oct-16 07:00N 34°41' E 135°11'0 0.0
2017-Oct-16 06:24N 34°41' E 135°11'0 0.0
2017-Oct-16 06:00N 34°41' E 135°11'0 0.0
2017-Oct-16 05:30N 34°41' E 135°11'0 0.0
2017-Oct-16 05:00N 34°41' E 135°11'3 5.6
2017-Oct-16 04:30N 34°38' E 135°10'4 7.1
2017-Oct-16 04:00N 34°37' E 135°06'510.1
2017-Oct-16 03:30N 34°38' E 135°12'3 6.8
2017-Oct-16 03:00N 34°41' E 135°11'0 0.0
2017-Oct-16 02:24N 34°41' E 135°11'0 0.0
2017-Oct-16 02:00N 34°41' E 135°11'0 0.0
2017-Oct-16 01:30N 34°41' E 135°11'0 0.0
2017-Oct-16 01:00N 34°41' E 135°11'0 0.0
2017-Oct-16 00:30N 34°41' E 135°11'0 0.0
2017-Oct-16 00:00N 34°41' E 135°11'0 0.0
2017-Oct-15 23:30N 34°41' E 135°11'0 0.0
2017-Oct-15 23:00N 34°41' E 135°11'0 0.0
2017-Oct-15 22:24N 34°41' E 135°11'0 0.0
2017-Oct-15 22:00N 34°41' E 135°11'0 0.0
2017-Oct-15 21:30N 34°41' E 135°11'0 0.0
2017-Oct-15 21:00N 34°41' E 135°11'0 0.0
2017-Oct-15 20:12N 34°41' E 135°11'0 0.0
2017-Oct-15 20:00N 34°41' E 135°11'0 0.0
2017-Oct-15 19:18N 34°41' E 135°11'0 0.0
2017-Oct-15 19:00N 34°41' E 135°11'0 0.0
2017-Oct-15 18:30N 34°41' E 135°11'0 0.0
2017-Oct-15 18:00N 34°41' E 135°11'0 0.0
2017-Oct-15 17:30N 34°41' E 135°11'0 0.0
2017-Oct-15 16:54N 34°41' E 135°11'0 0.0
2017-Oct-15 16:30N 34°41' E 135°11'0 0.0
2017-Oct-15 16:00N 34°41' E 135°11'0 0.0
2017-Oct-15 15:30N 34°41' E 135°11'0 0.0
2017-Oct-15 15:00N 34°41' E 135°11'0 0.0
2017-Oct-15 14:00N 34°41' E 135°11'0 0.0
2017-Oct-15 13:30N 34°41' E 135°11'0 0.0
2017-Oct-15 13:00N 34°41' E 135°11'0 0.0
2017-Oct-15 12:24N 34°41' E 135°11'1 2.8
2017-Oct-15 12:00N 34°40' E 135°11'611.5
2017-Oct-15 11:30N 34°36' E 135°06'612.8
2017-Oct-15 11:00N 34°37' E 134°59'713.5
2017-Oct-15 10:30N 34°37' E 135°07'510.3
2017-Oct-15 10:00N 34°41' E 135°11'0 0.0
2017-Oct-15 09:30N 34°41' E 135°11'0 0.0
2017-Oct-15 09:00N 34°41' E 135°11'3 5.1
2017-Oct-15 08:30N 34°38' E 135°11'3 5.1
2017-Oct-15 08:00N 34°37' E 135°08'4 7.1
2017-Oct-15 07:30N 34°37' E 135°12'3 6.9
2017-Oct-15 07:00N 34°41' E 135°11'0 0.0
2017-Oct-15 06:26N 34°41' E 135°11'0 0.0
2017-Oct-15 05:50N 34°41' E 135°11'0 0.0
2017-Oct-15 05:26N 34°41' E 135°11'0 0.0
2017-Oct-15 05:00N 34°41' E 135°11'3 5.7
2017-Oct-15 04:30N 34°38' E 135°10'3 6.3
2017-Oct-15 04:00N 34°37' E 135°07'5 9.3
2017-Oct-15 03:30N 34°38' E 135°12'3 6.5
2017-Oct-15 03:00N 34°41' E 135°11'0 0.0
2017-Oct-15 02:29N 34°41' E 135°11'0 0.0
2017-Oct-15 01:53N 34°41' E 135°11'0 0.0
2017-Oct-15 01:29N 34°41' E 135°11'0 0.0
2017-Oct-15 00:59N 34°41' E 135°11'0 0.0
2017-Oct-15 00:29N 34°41' E 135°11'0 0.0
2017-Oct-14 23:59N 34°41' E 135°11'0 0.0
2017-Oct-14 23:29N 34°41' E 135°11'0 0.0
2017-Oct-14 22:59N 34°41' E 135°11'0 0.0
2017-Oct-14 22:29N 34°41' E 135°11'0 0.0
2017-Oct-14 21:59N 34°41' E 135°11'0 0.0
2017-Oct-14 21:29N 34°41' E 135°11'0 0.0
2017-Oct-14 20:59N 34°41' E 135°11'0 0.0
2017-Oct-14 20:29N 34°41' E 135°11'0 0.0
2017-Oct-14 19:59N 34°41' E 135°11'0 0.0
2017-Oct-14 19:29N 34°41' E 135°11'0 0.0
2017-Oct-14 18:59N 34°41' E 135°11'0 0.0
2017-Oct-14 18:23N 34°41' E 135°11'0 0.0
2017-Oct-14 17:59N 34°41' E 135°11'0 0.0
2017-Oct-14 17:17N 34°41' E 135°11'0 0.0
2017-Oct-14 16:59N 34°41' E 135°11'0 0.0
2017-Oct-14 16:29N 34°41' E 135°11'0 0.0
2017-Oct-14 15:59N 34°41' E 135°11'0 0.0
2017-Oct-14 15:29N 34°41' E 135°11'0 0.0
2017-Oct-14 14:59N 34°41' E 135°11'0 0.0
2017-Oct-14 14:29N 34°41' E 135°11'0 0.0
2017-Oct-14 13:59N 34°41' E 135°11'0 0.0
2017-Oct-14 13:29N 34°41' E 135°11'0 0.0
2017-Oct-14 12:59N 34°41' E 135°11'0 0.0
2017-Oct-14 12:29N 34°41' E 135°11'1 2.3
2017-Oct-14 12:00N 34°40' E 135°12'713.4
2017-Oct-14 11:30N 34°35' E 135°06'612.5
2017-Oct-14 11:00N 34°38' E 134°59'713.7
2017-Oct-14 10:30N 34°37' E 135°07'510.6
2017-Oct-14 10:00N 34°41' E 135°11'0 0.0
2017-Oct-14 09:30N 34°41' E 135°11'0 0.0
2017-Oct-14 09:00N 34°41' E 135°11'3 5.0
2017-Oct-14 08:30N 34°38' E 135°11'4 8.8
2017-Oct-14 08:00N 34°37' E 135°06'611.3
2017-Oct-14 07:30N 34°37' E 135°12'4 7.6
2017-Oct-14 07:01N 34°41' E 135°11'0 0.0
2017-Oct-14 06:30N 34°41' E 135°11'0 0.0
2017-Oct-14 06:00N 34°41' E 135°11'0 0.0
2017-Oct-14 05:30N 34°41' E 135°11'0 0.0
2017-Oct-14 05:00N 34°41' E 135°11'3 5.7
2017-Oct-14 04:31N 34°38' E 135°10'3 6.3
2017-Oct-14 04:00N 34°37' E 135°07'5 9.3
2017-Oct-14 03:30N 34°38' E 135°12'3 6.9
2017-Oct-14 03:00N 34°41' E 135°11'0 0.0
2017-Oct-14 02:28N 34°41' E 135°11'0 0.0
2017-Oct-14 01:58N 34°41' E 135°11'0 0.0
2017-Oct-14 01:28N 34°41' E 135°11'0 0.0
2017-Oct-14 00:58N 34°41' E 135°11'0 0.0
2017-Oct-14 00:16N 34°41' E 135°11'0 0.0
2017-Oct-13 23:52N 34°41' E 135°11'0 0.0
2017-Oct-13 23:16N 34°41' E 135°11'0 0.0
2017-Oct-13 22:58N 34°41' E 135°11'0 0.0
2017-Oct-13 22:28N 34°41' E 135°11'0 0.0
2017-Oct-13 21:58N 34°41' E 135°11'0 0.0
2017-Oct-13 21:28N 34°41' E 135°11'0 0.0
2017-Oct-13 20:58N 34°41' E 135°11'0 0.0
2017-Oct-13 20:28N 34°41' E 135°11'0 0.0
2017-Oct-13 19:58N 34°41' E 135°11'0 0.0
2017-Oct-13 19:28N 34°41' E 135°11'0 0.0
2017-Oct-13 18:58N 34°41' E 135°11'0 0.0
2017-Oct-13 18:28N 34°41' E 135°11'0 0.0
2017-Oct-13 17:52N 34°41' E 135°11'0 0.0
2017-Oct-13 17:22N 34°41' E 135°11'0 0.0
2017-Oct-13 16:58N 34°41' E 135°11'0 0.0
2017-Oct-13 16:28N 34°41' E 135°11'0 0.0
2017-Oct-13 15:58N 34°41' E 135°11'0 0.0
2017-Oct-13 15:28N 34°41' E 135°11'0 0.0
2017-Oct-13 14:58N 34°41' E 135°11'0 0.0
2017-Oct-13 14:28N 34°41' E 135°11'0 0.0
2017-Oct-13 13:58N 34°41' E 135°11'0 0.0
2017-Oct-13 13:28N 34°41' E 135°11'0 0.0
2017-Oct-13 12:58N 34°41' E 135°11'0 0.0
2017-Oct-13 12:28N 34°41' E 135°11'1 3.0
2017-Oct-13 12:00N 34°39' E 135°11'712.9
2017-Oct-13 11:30N 34°35' E 135°05'511.1
2017-Oct-13 11:00N 34°37' E 134°59'612.4
2017-Oct-13 10:30N 34°37' E 135°07'510.4
2017-Oct-13 10:00N 34°41' E 135°11'0 0.0
2017-Oct-13 09:27N 34°41' E 135°11'1 2.5
2017-Oct-13 09:00N 34°40' E 135°12'4 8.5
2017-Oct-13 08:30N 34°37' E 135°07'5 9.7
2017-Oct-13 08:00N 34°41' E 135°11'0 0.0
2017-Oct-13 07:30N 34°41' E 135°11'0 0.0
2017-Oct-13 07:00N 34°41' E 135°11'0 0.0
2017-Oct-13 06:30N 34°41' E 135°11'0 0.0
2017-Oct-13 06:00N 34°41' E 135°11'0 0.0
2017-Oct-13 05:30N 34°41' E 135°11'0 0.0
2017-Oct-13 05:00N 34°41' E 135°11'3 5.5
2017-Oct-13 04:30N 34°38' E 135°10'2 4.4
2017-Oct-13 04:00N 34°37' E 135°08'3 6.9
2017-Oct-13 03:30N 34°38' E 135°12'3 6.6
2017-Oct-13 03:00N 34°41' E 135°11'0 0.0
2017-Oct-13 02:30N 34°41' E 135°11'0 0.0
2017-Oct-13 02:00N 34°41' E 135°11'0 0.0
2017-Oct-13 01:24N 34°41' E 135°11'0 0.0
2017-Oct-13 01:00N 34°41' E 135°11'0 0.0
2017-Oct-13 00:30N 34°41' E 135°11'0 0.0
2017-Oct-13 00:00N 34°41' E 135°11'0 0.0
2017-Oct-12 23:30N 34°41' E 135°11'0 0.0
2017-Oct-12 23:00N 34°41' E 135°11'0 0.0
2017-Oct-12 22:24N 34°41' E 135°11'0 0.0
2017-Oct-12 21:36N 34°41' E 135°11'0 0.1
2017-Oct-12 21:30N 34°41' E 135°11'0 0.0
2017-Oct-12 21:00N 34°41' E 135°11'0 0.0
2017-Oct-12 20:30N 34°41' E 135°11'0 0.0
2017-Oct-12 20:00N 34°41' E 135°11'0 0.0
2017-Oct-12 19:30N 34°41' E 135°11'0 0.0
2017-Oct-12 19:00N 34°41' E 135°11'0 0.0
2017-Oct-12 18:30N 34°41' E 135°11'0 0.0
2017-Oct-12 18:00N 34°41' E 135°11'0 0.0
2017-Oct-12 17:30N 34°41' E 135°11'0 0.0
2017-Oct-12 17:00N 34°41' E 135°11'0 0.0
2017-Oct-12 16:30N 34°41' E 135°11'0 0.0
2017-Oct-12 16:00N 34°41' E 135°11'0 0.0
2017-Oct-12 15:30N 34°41' E 135°11'0 0.0
2017-Oct-12 15:00N 34°41' E 135°11'0 0.0
2017-Oct-12 14:30N 34°41' E 135°11'0 0.0
2017-Oct-12 14:00N 34°41' E 135°11'0 0.0
2017-Oct-12 13:30N 34°41' E 135°11'0 0.0
2017-Oct-12 13:00N 34°41' E 135°11'0 0.0
2017-Oct-12 12:30N 34°41' E 135°11'1 2.2
2017-Oct-12 12:01N 34°40' E 135°12'611.8
2017-Oct-12 11:30N 34°35' E 135°06'612.3
2017-Oct-12 11:00N 34°37' E 134°59'612.5
2017-Oct-12 10:30N 34°37' E 135°07'510.3
2017-Oct-12 10:00N 34°41' E 135°11'0 0.0
2017-Oct-12 09:24N 34°41' E 135°11'1 2.6
2017-Oct-12 09:00N 34°40' E 135°12'4 8.7
2017-Oct-12 08:30N 34°37' E 135°07'5 9.6
2017-Oct-12 08:00N 34°41' E 135°11'0 0.0
2017-Oct-12 07:28N 34°41' E 135°11'0 0.0
2017-Oct-12 06:58N 34°41' E 135°11'0 0.0
2017-Oct-12 06:28N 34°41' E 135°11'0 0.0
2017-Oct-12 05:58N 34°41' E 135°11'0 0.0
2017-Oct-12 05:28N 34°41' E 135°11'0 0.0
2017-Oct-12 05:00N 34°41' E 135°11'3 5.4
2017-Oct-12 04:31N 34°38' E 135°10'3 6.4
2017-Oct-12 03:59N 34°37' E 135°07'510.1
2017-Oct-12 03:31N 34°37' E 135°12'4 7.1
2017-Oct-12 03:01N 34°41' E 135°11'0 0.0
2017-Oct-12 02:30N 34°41' E 135°11'0 0.0
2017-Oct-12 02:00N 34°41' E 135°11'0 0.0
2017-Oct-12 01:30N 34°41' E 135°11'0 0.0
2017-Oct-12 01:00N 34°41' E 135°11'0 0.0
2017-Oct-12 00:30N 34°41' E 135°11'0 0.0
2017-Oct-12 00:00N 34°41' E 135°11'0 0.0
2017-Oct-11 23:24N 34°41' E 135°11'0 0.0
2017-Oct-11 23:00N 34°41' E 135°11'0 0.0
2017-Oct-11 22:30N 34°41' E 135°11'0 0.0
2017-Oct-11 22:00N 34°41' E 135°11'0 0.0
2017-Oct-11 21:30N 34°41' E 135°11'0 0.0
2017-Oct-11 20:54N 34°41' E 135°11'0 0.0
2017-Oct-11 20:30N 34°41' E 135°11'0 0.0
2017-Oct-11 20:00N 34°41' E 135°11'0 0.0
2017-Oct-11 19:30N 34°41' E 135°11'0 0.0
2017-Oct-11 19:00N 34°41' E 135°11'0 0.0
2017-Oct-11 18:12N 34°41' E 135°11'0 0.0
2017-Oct-11 18:00N 34°41' E 135°11'0 0.0
2017-Oct-11 17:30N 34°41' E 135°11'0 0.0
2017-Oct-11 17:00N 34°41' E 135°11'0 0.0
2017-Oct-10 23:55N 34°41' E 135°11'0 0.0
2017-Oct-10 23:25N 34°41' E 135°11'0 0.0
2017-Oct-10 22:55N 34°41' E 135°11'0 0.0
2017-Oct-10 22:13N 34°41' E 135°11'0 0.0
2017-Oct-10 21:55N 34°41' E 135°11'0 0.0
2017-Oct-10 21:25N 34°41' E 135°11'0 0.0
2017-Oct-10 20:55N 34°41' E 135°11'0 0.0
2017-Oct-10 20:19N 34°41' E 135°11'0 0.0
2017-Oct-10 19:55N 34°41' E 135°11'0 0.0
2017-Oct-10 19:25N 34°41' E 135°11'0 0.0
2017-Oct-10 18:55N 34°41' E 135°11'0 0.0
2017-Oct-10 18:19N 34°41' E 135°11'0 0.0
2017-Oct-10 17:55N 34°41' E 135°11'0 0.0
2017-Oct-10 17:25N 34°41' E 135°11'0 0.0
2017-Oct-10 16:49N 34°41' E 135°11'0 0.0
2017-Oct-10 16:25N 34°41' E 135°11'0 0.0
2017-Oct-10 15:55N 34°41' E 135°11'0 0.0
2017-Oct-10 15:19N 34°41' E 135°11'0 0.0
2017-Oct-10 14:55N 34°41' E 135°11'0 0.0
2017-Oct-10 13:55N 34°41' E 135°11'0 0.0
2017-Oct-10 13:25N 34°41' E 135°11'0 0.0
2017-Oct-10 12:55N 34°41' E 135°11'0 0.0
2017-Oct-10 12:28N 34°41' E 135°11'1 2.6
2017-Oct-10 12:00N 34°40' E 135°11'611.5
2017-Oct-10 11:30N 34°36' E 135°06'610.5
2017-Oct-10 10:58N 34°38' E 134°60'613.1
2017-Oct-10 10:30N 34°37' E 135°07'510.3
2017-Oct-10 10:00N 34°41' E 135°11'0 0.0
2017-Oct-10 09:27N 34°41' E 135°11'1 2.2
2017-Oct-10 09:00N 34°40' E 135°12'4 8.4
2017-Oct-10 08:30N 34°37' E 135°08'5 9.4
2017-Oct-10 08:00N 34°41' E 135°11'0 0.0
2017-Oct-10 07:25N 34°41' E 135°11'0 0.0
2017-Oct-10 06:55N 34°41' E 135°11'0 0.0
2017-Oct-10 06:25N 34°41' E 135°11'0 0.0
2017-Oct-10 05:55N 34°41' E 135°11'0 0.0
2017-Oct-10 05:25N 34°41' E 135°11'0 0.0
2017-Oct-10 05:01N 34°41' E 135°11'3 5.5
2017-Oct-10 04:30N 34°38' E 135°10'3 7.0
2017-Oct-10 04:01N 34°37' E 135°06'5 9.2
2017-Oct-10 03:30N 34°38' E 135°12'3 6.8
2017-Oct-10 03:00N 34°41' E 135°11'0 0.0
2017-Oct-10 02:19N 34°41' E 135°11'0 0.0
2017-Oct-10 01:55N 34°41' E 135°11'0 0.0
2017-Oct-10 01:25N 34°41' E 135°11'0 0.0
2017-Oct-10 00:55N 34°41' E 135°11'0 0.0
2017-Oct-10 00:25N 34°41' E 135°11'0 0.0
2017-Oct-09 23:55N 34°41' E 135°11'0 0.0
2017-Oct-09 23:19N 34°41' E 135°11'  

Dump ship's entire track history